Time;durP1;ratioP1;P1;durP2;ratioP2;P2;SDS_P1;SDS_P2;PMS_P1;PMS_P2;Temp;Humidity;BMP_temperature;BMP_pressure;BME280_temperature;BME280_humidity;BME280_pressure;Samples;Min_cycle;Max_cycle;Signal;HPM_P1;HPM_P2
2022/10/16 00:01:19;;;;;;;3.45;1.02;;;12.30;99.90;;;;;;5118347;27;20048;-66
2022/10/16 00:03:46;;;;;;;7.82;1.63;;;12.40;99.90;;;;;;5126459;27;20122;-66
2022/10/16 00:06:13;;;;;;;3.78;1.08;;;12.40;99.90;;;;;;5128355;27;20082;-67
2022/10/16 00:08:39;;;;;;;14.80;2.38;;;12.40;99.90;;;;;;5115397;27;20066;-66
2022/10/16 00:11:10;;;;;;;8.98;1.48;;;12.40;99.90;;;;;;5129439;27;20039;-66
2022/10/16 00:13:38;;;;;;;5.03;1.10;;;12.40;99.90;;;;;;5124647;27;20556;-66
2022/10/16 00:16:04;;;;;;;11.98;1.45;;;12.40;99.90;;;;;;5129454;27;20439;-66
2022/10/16 00:18:30;;;;;;;10.85;1.90;;;12.40;99.90;;;;;;5129003;27;20548;-66
2022/10/16 00:21:27;;;;;;;12.68;2.15;;;12.40;99.90;;;;;;5129760;27;20043;-66
2022/10/16 00:23:59;;;;;;;5.35;1.98;;;12.40;99.90;;;;;;5117207;27;20044;-66
2022/10/16 00:26:25;;;;;;;7.55;1.35;;;12.40;99.90;;;;;;5120296;27;20504;-66
2022/10/16 00:28:52;;;;;;;7.47;1.50;;;12.40;99.90;;;;;;5131365;27;20049;-66
2022/10/16 00:31:20;;;;;;;5.97;1.40;;;12.40;99.90;;;;;;5132042;27;20756;-67
2022/10/16 00:33:46;;;;;;;7.45;1.50;;;12.40;99.90;;;;;;5149927;27;20045;-67
2022/10/16 00:36:15;;;;;;;11.13;1.10;;;12.40;99.90;;;;;;5150460;27;20129;-67
2022/10/16 00:38:40;;;;;;;6.67;1.27;;;12.40;99.90;;;;;;5150316;27;20038;-67
2022/10/16 00:41:10;;;;;;;4.72;1.20;;;12.40;99.90;;;;;;5131549;27;20084;-91
2022/10/16 00:43:46;;;;;;;2.88;1.05;;;12.40;99.90;;;;;;5131179;27;20035;-66
2022/10/16 00:46:22;;;;;;;10.93;1.80;;;12.40;99.90;;;;;;5149896;27;20077;-66
2022/10/16 00:49:03;;;;;;;3.55;1.20;;;12.50;99.90;;;;;;5138018;27;20126;-67
2022/10/16 00:51:35;;;;;;;5.40;1.23;;;12.40;99.90;;;;;;5149691;27;20110;-67
2022/10/16 00:54:04;;;;;;;3.17;1.15;;;12.40;99.90;;;;;;5130626;27;20492;-67
2022/10/16 00:56:29;;;;;;;8.85;1.85;;;12.50;99.90;;;;;;5149385;27;20526;-67
2022/10/16 00:58:55;;;;;;;5.50;1.15;;;12.40;99.90;;;;;;5149261;27;20073;-67
2022/10/16 01:01:21;;;;;;;2.83;1.02;;;12.40;99.90;;;;;;5131612;27;20480;-67
2022/10/16 01:03:47;;;;;;;4.65;1.20;;;12.50;99.90;;;;;;5149076;27;20038;-67
2022/10/16 01:06:25;;;;;;;7.68;1.33;;;12.50;99.90;;;;;;5114077;27;20111;-67
2022/10/16 01:09:13;;;;;;;5.93;1.05;;;12.50;99.90;;;;;;5148376;27;20042;-67
2022/10/16 01:11:50;;;;;;;5.30;1.27;;;12.50;99.90;;;;;;5130941;27;20042;-66
2022/10/16 01:14:28;;;;;;;6.07;1.50;;;12.50;99.90;;;;;;5150028;27;20134;-66
2022/10/16 01:17:26;;;;;;;5.85;1.15;;;12.50;99.90;;;;;;5148826;27;20453;-66
2022/10/16 01:20:14;;;;;;;5.35;1.20;;;12.50;99.90;;;;;;5135516;27;20551;-67
2022/10/16 01:23:10;;;;;;;4.53;0.98;;;12.40;99.90;;;;;;5149072;27;20512;-67
2022/10/16 01:26:04;;;;;;;2.60;1.05;;;12.40;99.90;;;;;;5134235;27;20061;-89
2022/10/16 01:28:41;;;;;;;7.35;1.30;;;12.40;99.90;;;;;;5137113;27;20046;-67
2022/10/16 01:31:10;;;;;;;11.70;1.80;;;12.30;99.90;;;;;;5149113;27;20065;-67
2022/10/16 01:33:42;;;;;;;8.95;1.38;;;12.30;99.90;;;;;;5148189;27;20049;-67
2022/10/16 01:36:14;;;;;;;4.65;1.17;;;12.30;99.90;;;;;;5149826;27;20488;-67
2022/10/16 01:38:42;;;;;;;8.63;1.27;;;12.20;99.90;;;;;;5129736;27;20508;-67
2022/10/16 01:41:34;;;;;;;3.45;1.02;;;12.20;99.90;;;;;;5149164;27;20111;-70
2022/10/16 01:44:19;;;;;;;6.90;1.20;;;12.20;99.90;;;;;;5135420;27;20063;-67
2022/10/16 01:46:48;;;;;;;10.50;2.20;;;12.20;99.90;;;;;;5148732;27;20099;-67
2022/10/16 01:49:15;;;;;;;10.40;1.13;;;12.10;99.90;;;;;;5149560;27;20046;-67
2022/10/16 01:51:45;;;;;;;5.88;1.38;;;12.20;99.90;;;;;;5147913;27;20043;-67
2022/10/16 01:54:13;;;;;;;3.38;1.20;;;12.10;99.90;;;;;;5149064;27;20078;-66
2022/10/16 01:56:39;;;;;;;5.78;1.17;;;12.10;99.90;;;;;;5148209;27;20121;-67
2022/10/16 01:59:10;;;;;;;4.57;1.13;;;12.10;99.90;;;;;;5149181;27;20492;-67
2022/10/16 02:01:40;;;;;;;6.93;1.20;;;12.10;99.90;;;;;;5131694;27;20095;-67
2022/10/16 02:04:21;;;;;;;5.35;1.20;;;12.10;99.90;;;;;;5148561;27;20046;-66
2022/10/16 02:06:47;;;;;;;7.72;1.42;;;12.10;99.90;;;;;;5131561;27;20357;-66
2022/10/16 02:09:15;;;;;;;5.57;1.45;;;12.10;99.90;;;;;;5144447;27;20049;-67
2022/10/16 02:11:41;;;;;;;6.05;1.38;;;12.10;99.90;;;;;;5138911;27;20099;-67
2022/10/16 02:14:07;;;;;;;3.28;0.95;;;12.10;99.90;;;;;;5149872;27;20042;-66
2022/10/16 02:16:45;;;;;;;6.32;1.30;;;12.00;99.90;;;;;;5148791;27;20568;-67
2022/10/16 02:19:16;;;;;;;4.95;1.20;;;12.10;99.90;;;;;;5148508;27;20052;-66
2022/10/16 02:21:51;;;;;;;7.50;1.33;;;12.00;99.90;;;;;;5148912;27;20042;-67
2022/10/16 02:24:55;;;;;;;9.65;1.52;;;12.10;99.90;;;;;;5131821;27;20137;-67
2022/10/16 02:28:19;;;;;;;2.80;1.00;;;12.10;99.90;;;;;;5085673;27;20050;-67
2022/10/16 02:30:52;;;;;;;5.00;1.02;;;12.10;99.90;;;;;;5064234;28;20089;-66
2022/10/16 02:33:19;;;;;;;8.85;1.23;;;12.10;99.90;;;;;;5067255;28;20036;-82
2022/10/16 02:35:47;;;;;;;3.63;1.02;;;12.10;99.90;;;;;;5111872;27;20084;-66
2022/10/16 02:38:15;;;;;;;7.05;1.30;;;12.10;99.90;;;;;;5150133;27;20043;-66
2022/10/16 02:40:42;;;;;;;8.27;1.40;;;12.10;99.90;;;;;;5115972;27;20042;-67
2022/10/16 02:43:08;;;;;;;4.53;1.17;;;12.10;99.90;;;;;;5149698;27;20042;-66
2022/10/16 02:45:34;;;;;;;5.13;1.38;;;12.10;99.90;;;;;;5155927;27;20043;-84
2022/10/16 02:48:00;;;;;;;6.03;1.40;;;12.10;99.90;;;;;;5171302;27;20044;-69
2022/10/16 02:50:26;;;;;;;4.57;1.45;;;12.10;99.90;;;;;;5169616;27;20023;-85
2022/10/16 02:52:52;;;;;;;8.80;1.35;;;12.10;99.90;;;;;;5136829;27;20043;-71
2022/10/16 02:55:17;;;;;;;7.65;1.13;;;12.10;99.90;;;;;;5156725;27;20046;-66
2022/10/16 02:57:43;;;;;;;7.78;1.30;;;12.10;99.90;;;;;;5151610;27;20054;-66
2022/10/16 03:00:11;;;;;;;9.20;2.45;;;12.10;99.90;;;;;;5129551;27;20119;-66
2022/10/16 03:02:37;;;;;;;8.23;1.65;;;12.10;99.90;;;;;;5148055;27;20081;-67
2022/10/16 03:05:04;;;;;;;7.75;1.50;;;12.10;99.90;;;;;;5148316;27;20110;-66
2022/10/16 03:07:30;;;;;;;5.07;1.33;;;12.10;99.90;;;;;;5147836;27;20117;-66
2022/10/16 03:09:55;;;;;;;3.45;1.20;;;12.10;99.90;;;;;;5147299;27;20694;-66
2022/10/16 03:12:21;;;;;;;2.17;0.90;;;12.10;99.90;;;;;;5147989;27;20038;-66
2022/10/16 03:14:47;;;;;;;5.25;1.55;;;12.20;99.90;;;;;;5147587;27;20400;-66
2022/10/16 03:17:13;;;;;;;3.60;1.60;;;12.20;99.90;;;;;;5148477;27;20042;-66
2022/10/16 03:19:39;;;;;;;7.95;1.17;;;12.20;99.90;;;;;;5147372;27;20095;-66
2022/10/16 03:22:05;;;;;;;3.42;1.05;;;12.20;99.90;;;;;;5147836;27;20047;-67
2022/10/16 03:24:30;;;;;;;4.95;1.33;;;12.20;99.90;;;;;;5128901;27;20299;-67
2022/10/16 03:26:57;;;;;;;5.15;1.58;;;12.20;99.90;;;;;;5147774;27;20055;-66
2022/10/16 03:29:23;;;;;;;3.63;1.10;;;12.20;99.90;;;;;;5147268;27;20157;-66
2022/10/16 03:31:49;;;;;;;3.17;1.23;;;12.20;99.90;;;;;;5147480;27;20080;-66
2022/10/16 03:34:15;;;;;;;2.05;1.15;;;12.20;99.90;;;;;;5152589;27;20030;-66
2022/10/16 03:36:40;;;;;;;2.67;1.10;;;12.30;99.90;;;;;;5150783;27;20041;-66
2022/10/16 03:39:06;;;;;;;5.63;1.45;;;12.20;99.90;;;;;;5134267;27;20100;-66
2022/10/16 03:41:32;;;;;;;2.85;1.08;;;12.20;99.90;;;;;;5150927;27;20476;-67
2022/10/16 03:43:57;;;;;;;8.70;1.38;;;12.30;99.90;;;;;;5152150;27;20130;-67
2022/10/16 03:46:23;;;;;;;2.05;1.25;;;12.30;99.90;;;;;;5133071;27;20586;-66
2022/10/16 03:48:49;;;;;;;1.20;1.00;;;12.30;99.90;;;;;;5151292;27;20051;-66
2022/10/16 03:51:15;;;;;;;4.38;1.30;;;12.30;99.90;;;;;;5133354;27;20549;-66
2022/10/16 03:53:41;;;;;;;3.90;1.00;;;12.30;99.90;;;;;;5150164;27;20066;-66
2022/10/16 03:56:06;;;;;;;2.97;1.30;;;12.30;99.90;;;;;;5151899;27;20504;-67
2022/10/16 03:58:32;;;;;;;5.20;1.27;;;12.30;99.90;;;;;;5150424;27;20820;-67
2022/10/16 04:00:58;;;;;;;5.82;1.38;;;12.30;99.90;;;;;;5151406;27;20066;-66
2022/10/16 04:03:24;;;;;;;1.92;0.95;;;12.30;99.90;;;;;;5150716;27;20053;-66
2022/10/16 04:05:50;;;;;;;3.70;1.02;;;12.30;99.90;;;;;;5132302;27;20042;-66
2022/10/16 04:08:16;;;;;;;5.63;1.00;;;12.30;99.90;;;;;;5132572;27;20519;-66
2022/10/16 04:10:45;;;;;;;6.60;1.23;;;12.30;99.90;;;;;;5149897;27;20071;-66
2022/10/16 04:13:11;;;;;;;4.93;1.30;;;12.30;99.90;;;;;;5151497;27;20039;-67
2022/10/16 04:15:37;;;;;;;3.53;1.38;;;12.30;99.90;;;;;;5150498;27;20129;-78
2022/10/16 04:18:03;;;;;;;3.03;1.15;;;12.30;99.90;;;;;;5133248;27;20133;-66
2022/10/16 04:20:29;;;;;;;2.03;1.15;;;12.30;99.90;;;;;;5150915;27;20520;-66
2022/10/16 04:22:55;;;;;;;7.65;1.08;;;12.20;99.90;;;;;;5150347;27;20042;-66
2022/10/16 04:25:21;;;;;;;4.85;1.48;;;12.20;99.90;;;;;;5150408;27;20115;-66
2022/10/16 04:27:47;;;;;;;3.90;1.15;;;12.20;99.90;;;;;;5150926;27;20059;-66
2022/10/16 04:30:13;;;;;;;3.80;1.10;;;12.20;99.90;;;;;;5154745;27;20042;-85
2022/10/16 04:32:39;;;;;;;6.88;1.10;;;12.20;99.90;;;;;;5133815;27;20396;-67
2022/10/16 04:35:06;;;;;;;6.78;1.20;;;12.20;99.90;;;;;;5150643;27;20031;-66
2022/10/16 04:37:31;;;;;;;7.88;1.17;;;12.10;99.90;;;;;;5151074;27;20035;-66
2022/10/16 04:39:57;;;;;;;4.70;1.27;;;12.10;99.90;;;;;;5151599;27;20310;-94
2022/10/16 04:42:23;;;;;;;1.33;0.80;;;12.10;99.90;;;;;;5132041;27;20046;-66
2022/10/16 04:44:48;;;;;;;1.85;1.20;;;12.10;99.90;;;;;;5131463;27;20061;-80
2022/10/16 04:47:14;;;;;;;5.93;1.65;;;12.10;99.90;;;;;;5132656;27;20150;-67
2022/10/16 04:49:40;;;;;;;6.18;1.20;;;12.00;99.90;;;;;;5151239;27;20058;-66
2022/10/16 04:52:06;;;;;;;3.92;1.10;;;12.00;99.90;;;;;;5152272;27;20066;-66
2022/10/16 04:54:32;;;;;;;2.05;1.00;;;12.00;99.90;;;;;;5149526;27;20068;-66
2022/10/16 04:56:57;;;;;;;4.78;1.77;;;12.00;99.90;;;;;;5150858;27;20500;-66
2022/10/16 04:59:23;;;;;;;2.03;1.58;;;11.90;99.90;;;;;;5131834;27;20575;-66
2022/10/16 05:01:50;;;;;;;2.00;1.13;;;11.90;99.90;;;;;;5130761;27;20099;-66
2022/10/16 05:04:16;;;;;;;4.00;1.23;;;12.00;99.90;;;;;;5131694;27;20089;-66
2022/10/16 05:06:42;;;;;;;2.72;0.90;;;12.00;99.90;;;;;;5149868;27;20043;-66
2022/10/16 05:09:09;;;;;;;3.58;1.00;;;12.10;99.90;;;;;;5150225;27;20031;-66
2022/10/16 05:11:34;;;;;;;3.65;1.15;;;12.10;99.90;;;;;;5149260;27;20066;-66
2022/10/16 05:14:01;;;;;;;1.80;0.90;;;12.20;99.90;;;;;;5149586;27;20042;-66
2022/10/16 05:16:26;;;;;;;5.45;1.40;;;12.20;99.90;;;;;;5148057;27;20488;-66
2022/10/16 05:18:53;;;;;;;9.23;1.83;;;12.20;99.90;;;;;;5150154;27;20122;-66
2022/10/16 05:21:20;;;;;;;4.57;0.88;;;12.30;99.90;;;;;;5131414;27;20495;-66
2022/10/16 05:23:45;;;;;;;1.17;0.90;;;12.40;99.90;;;;;;5149353;27;20039;-66
2022/10/16 05:26:11;;;;;;;4.68;1.00;;;12.30;99.90;;;;;;5148920;27;20039;-67
2022/10/16 05:28:37;;;;;;;2.60;0.98;;;12.40;99.90;;;;;;5150291;27;20405;-67
2022/10/16 05:31:07;;;;;;;5.32;1.40;;;12.40;99.90;;;;;;5130562;27;20126;-67
2022/10/16 05:33:33;;;;;;;4.25;1.23;;;12.40;99.90;;;;;;5150885;27;20042;-67
2022/10/16 05:36:07;;;;;;;1.90;0.95;;;12.40;99.90;;;;;;5150785;27;20396;-88
2022/10/16 05:38:33;;;;;;;2.85;1.27;;;12.50;99.90;;;;;;5146535;27;20046;-92
2022/10/16 05:40:59;;;;;;;3.38;1.25;;;12.40;99.90;;;;;;5130729;27;20516;-66
2022/10/16 05:43:27;;;;;;;5.90;1.58;;;12.40;99.90;;;;;;5130299;27;20038;-67
2022/10/16 05:45:58;;;;;;;2.35;1.25;;;12.50;99.90;;;;;;5149537;27;20031;-67
2022/10/16 05:48:24;;;;;;;3.13;1.25;;;12.40;99.90;;;;;;5126864;27;20058;-67
2022/10/16 05:51:02;;;;;;;5.00;1.10;;;12.40;99.90;;;;;;5147525;27;20046;-67
2022/10/16 05:53:29;;;;;;;2.92;1.10;;;12.40;99.90;;;;;;5131136;27;20042;-67
2022/10/16 05:55:56;;;;;;;3.28;1.30;;;12.40;99.90;;;;;;5149227;27;20056;-67
2022/10/16 05:58:22;;;;;;;2.90;1.00;;;12.50;99.90;;;;;;5148379;27;20070;-66
2022/10/16 06:01:00;;;;;;;2.38;1.15;;;12.50;99.90;;;;;;5129992;27;20065;-67
2022/10/16 06:03:26;;;;;;;4.90;1.17;;;12.40;99.90;;;;;;5148817;27;20031;-67
2022/10/16 06:05:52;;;;;;;5.35;1.40;;;12.40;99.90;;;;;;5148942;27;20115;-66
2022/10/16 06:08:19;;;;;;;3.33;1.58;;;12.40;99.90;;;;;;5129418;27;20045;-67
2022/10/16 06:10:45;;;;;;;7.20;1.40;;;12.50;99.90;;;;;;5148747;27;20047;-67
2022/10/16 06:13:11;;;;;;;4.30;1.27;;;12.50;99.90;;;;;;5128860;27;20528;-67
2022/10/16 06:15:38;;;;;;;4.03;1.23;;;12.50;99.90;;;;;;5130484;27;20477;-66
2022/10/16 06:18:05;;;;;;;3.00;1.25;;;12.50;99.90;;;;;;5147701;27;20084;-67
2022/10/16 06:20:31;;;;;;;2.63;1.02;;;12.50;99.90;;;;;;5148235;27;20495;-67
2022/10/16 06:22:57;;;;;;;4.32;1.30;;;12.50;99.90;;;;;;5129228;27;20039;-66
2022/10/16 06:25:23;;;;;;;2.33;1.20;;;12.50;99.90;;;;;;5148331;27;20061;-67
2022/10/16 06:27:48;;;;;;;4.75;1.65;;;12.60;99.90;;;;;;5129916;27;20044;-96
2022/10/16 06:30:14;;;;;;;6.80;1.63;;;12.60;99.90;;;;;;5111496;27;20053;-67
2022/10/16 06:32:40;;;;;;;2.60;1.17;;;12.60;99.90;;;;;;5129515;27;20050;-67
2022/10/16 06:35:06;;;;;;;3.95;1.55;;;12.70;99.90;;;;;;5147439;27;20047;-67
2022/10/16 06:37:31;;;;;;;4.15;1.23;;;12.70;99.90;;;;;;5147108;27;20058;-66
2022/10/16 06:39:57;;;;;;;4.88;1.40;;;12.70;99.90;;;;;;5129177;27;20030;-67
2022/10/16 06:42:23;;;;;;;9.85;1.42;;;12.70;99.90;;;;;;5148075;27;20035;-66
2022/10/16 06:44:48;;;;;;;4.38;1.30;;;12.70;99.90;;;;;;5112965;27;20127;-66
2022/10/16 06:47:14;;;;;;;5.75;1.67;;;12.70;99.90;;;;;;5129711;27;20049;-67
2022/10/16 06:49:40;;;;;;;10.98;1.77;;;12.70;99.90;;;;;;5112658;27;20047;-67
2022/10/16 06:52:05;;;;;;;4.60;1.90;;;12.70;99.90;;;;;;5147610;27;20049;-67
2022/10/16 06:54:31;;;;;;;2.58;1.33;;;12.80;99.90;;;;;;5130140;27;20125;-67
2022/10/16 06:56:57;;;;;;;3.70;1.52;;;12.80;99.90;;;;;;5147251;27;20038;-67
2022/10/16 06:59:23;;;;;;;5.22;1.83;;;12.90;99.90;;;;;;5147680;27;20411;-67
2022/10/16 07:01:48;;;;;;;6.47;1.52;;;13.00;99.90;;;;;;5128359;27;20038;-66
2022/10/16 07:04:14;;;;;;;5.57;1.70;;;13.00;99.90;;;;;;5147616;27;20043;-93
2022/10/16 07:06:40;;;;;;;3.80;1.60;;;13.00;99.90;;;;;;5146029;27;20050;-66
2022/10/16 07:09:09;;;;;;;2.95;1.60;;;13.10;99.90;;;;;;5122584;27;20473;-67
2022/10/16 07:11:37;;;;;;;3.15;1.13;;;13.20;99.90;;;;;;5147546;27;20472;-67
2022/10/16 07:14:03;;;;;;;7.57;2.08;;;13.30;99.90;;;;;;5134589;27;20051;-67
2022/10/16 07:16:32;;;;;;;2.00;1.25;;;13.40;99.90;;;;;;5145614;27;20046;-67
2022/10/16 07:19:00;;;;;;;4.32;1.38;;;13.40;99.90;;;;;;5145509;27;20046;-67
2022/10/16 07:21:35;;;;;;;5.60;1.63;;;13.40;99.90;;;;;;5113206;27;20046;-66
2022/10/16 07:24:01;;;;;;;4.40;1.60;;;13.40;99.90;;;;;;5145407;27;20055;-67
2022/10/16 07:26:30;;;;;;;3.33;1.48;;;13.40;99.90;;;;;;5126276;27;20042;-67
2022/10/16 07:28:57;;;;;;;4.65;1.20;;;13.50;99.90;;;;;;5125999;27;20104;-67
2022/10/16 07:31:23;;;;;;;4.72;1.58;;;13.50;99.90;;;;;;5126020;27;20563;-67
2022/10/16 07:33:49;;;;;;;4.50;1.17;;;13.50;99.90;;;;;;5128414;27;20201;-67
2022/10/16 07:36:17;;;;;;;4.72;1.48;;;13.40;99.90;;;;;;5146646;27;20046;-78
2022/10/16 07:38:45;;;;;;;3.90;1.30;;;13.40;99.90;;;;;;5128613;27;20117;-67
2022/10/16 07:41:13;;;;;;;5.47;1.92;;;13.40;99.90;;;;;;5143958;27;20047;-67
2022/10/16 07:43:39;;;;;;;10.82;1.73;;;13.40;99.90;;;;;;5144385;27;20035;-67
2022/10/16 07:46:05;;;;;;;3.50;1.55;;;13.40;99.90;;;;;;5144978;27;20082;-67
2022/10/16 07:48:33;;;;;;;3.13;1.65;;;13.40;99.90;;;;;;5125198;27;20049;-67
2022/10/16 07:51:00;;;;;;;8.43;1.55;;;13.40;99.90;;;;;;5144840;27;20376;-67
2022/10/16 07:53:26;;;;;;;6.32;1.52;;;13.40;99.90;;;;;;5145847;27;20034;-67
2022/10/16 07:55:52;;;;;;;4.22;2.45;;;13.50;99.90;;;;;;5154912;27;20077;-84
2022/10/16 07:58:18;;;;;;;2.97;1.33;;;13.50;99.90;;;;;;5151299;27;20051;-90
2022/10/16 08:00:43;;;;;;;3.28;1.20;;;13.50;99.90;;;;;;5142930;27;20060;-67
2022/10/16 08:03:09;;;;;;;2.33;1.20;;;13.60;99.90;;;;;;5155271;27;20042;-71
2022/10/16 08:05:35;;;;;;;2.13;1.23;;;13.60;99.90;;;;;;5131449;27;20496;-67
2022/10/16 08:08:02;;;;;;;5.68;1.65;;;13.60;99.90;;;;;;5128676;27;20043;-67
2022/10/16 08:10:29;;;;;;;3.60;1.30;;;13.70;99.90;;;;;;5146762;27;20039;-67
2022/10/16 08:12:55;;;;;;;6.72;2.00;;;13.70;99.90;;;;;;5146650;27;20046;-67
2022/10/16 08:15:20;;;;;;;3.35;1.38;;;13.80;99.90;;;;;;5136024;27;20282;-67
2022/10/16 08:18:00;;;;;;;2.63;1.10;;;14.00;99.90;;;;;;5134841;27;20089;-67
2022/10/16 08:20:27;;;;;;;8.35;1.38;;;14.20;99.90;;;;;;5130215;27;20047;-67
2022/10/16 08:22:54;;;;;;;3.28;1.38;;;14.30;99.90;;;;;;5114401;27;20434;-68
2022/10/16 08:25:20;;;;;;;3.38;1.00;;;14.50;99.90;;;;;;5112911;27;20433;-67
2022/10/16 08:27:46;;;;;;;3.85;1.20;;;14.70;99.90;;;;;;5144546;27;20055;-67
2022/10/16 08:30:12;;;;;;;4.20;1.50;;;14.90;99.90;;;;;;5142891;27;20441;-67
2022/10/16 08:32:38;;;;;;;5.00;1.60;;;15.10;99.90;;;;;;5130592;27;20039;-67
2022/10/16 08:35:04;;;;;;;5.20;1.35;;;15.20;99.90;;;;;;5130339;27;20142;-67
2022/10/16 08:37:31;;;;;;;2.45;1.08;;;15.30;99.90;;;;;;5150278;27;20138;-67
2022/10/16 08:39:56;;;;;;;4.82;1.38;;;15.30;99.90;;;;;;5113483;27;20043;-71
2022/10/16 08:42:40;;;;;;;4.15;1.50;;;15.20;99.90;;;;;;5109131;27;20042;-67
2022/10/16 08:45:26;;;;;;;2.05;1.20;;;15.20;99.90;;;;;;5149381;27;20123;-67
2022/10/16 08:47:55;;;;;;;4.07;1.05;;;15.00;99.90;;;;;;5120200;27;20054;-67
2022/10/16 08:50:29;;;;;;;3.90;1.02;;;15.00;99.90;;;;;;5145432;27;20171;-68
2022/10/16 08:52:56;;;;;;;1.67;1.10;;;15.00;99.90;;;;;;5148856;27;20086;-67
2022/10/16 08:55:58;;;;;;;2.90;1.10;;;14.90;99.90;;;;;;5138008;27;20043;-68
2022/10/16 08:58:29;;;;;;;2.33;1.00;;;14.90;99.90;;;;;;5106864;27;20181;-67
2022/10/16 09:01:04;;;;;;;4.57;1.35;;;15.00;99.90;;;;;;5128591;27;20415;-67
2022/10/16 09:03:58;;;;;;;9.38;1.58;;;15.00;99.90;;;;;;5146661;27;20039;-67
2022/10/16 09:07:05;;;;;;;7.38;1.15;;;15.10;99.90;;;;;;5145681;27;20146;-68
2022/10/16 09:09:39;;;;;;;4.70;1.58;;;15.10;99.90;;;;;;5055297;27;20051;-67
2022/10/16 09:12:14;;;;;;;4.70;1.30;;;15.20;99.90;;;;;;5147414;27;20053;-67
2022/10/16 09:14:59;;;;;;;5.78;1.15;;;15.20;99.90;;;;;;5141613;27;20043;-67
2022/10/16 09:17:44;;;;;;;5.20;1.40;;;15.30;99.90;;;;;;5146507;27;20042;-68
2022/10/16 09:20:28;;;;;;;4.53;1.05;;;15.40;99.90;;;;;;5136145;27;20046;-67
2022/10/16 09:23:08;;;;;;;4.72;1.02;;;15.40;99.90;;;;;;5146894;27;20106;-68
2022/10/16 09:25:35;;;;;;;3.30;1.02;;;15.30;99.90;;;;;;5146917;27;20057;-67
2022/10/16 09:28:01;;;;;;;4.03;1.17;;;15.30;99.90;;;;;;5145207;27;20138;-67
2022/10/16 09:30:29;;;;;;;6.38;1.35;;;15.20;99.90;;;;;;5145662;27;20122;-68
2022/10/16 09:32:57;;;;;;;5.80;1.40;;;15.30;99.90;;;;;;5127033;27;20125;-67
2022/10/16 09:35:31;;;;;;;4.05;1.20;;;15.30;99.90;;;;;;5127646;27;20049;-67
2022/10/16 09:37:57;;;;;;;4.90;0.80;;;15.40;99.90;;;;;;5127655;27;20426;-84
2022/10/16 09:40:31;;;;;;;5.28;1.42;;;15.50;99.90;;;;;;5146952;27;20100;-67
2022/10/16 09:43:36;;;;;;;5.13;0.98;;;15.50;99.90;;;;;;5130092;27;20046;-68
2022/10/16 09:46:05;;;;;;;11.70;1.65;;;15.60;99.90;;;;;;5147571;27;20045;-67
2022/10/16 09:48:47;;;;;;;5.07;1.13;;;15.70;99.90;;;;;;5124814;27;20074;-67
2022/10/16 09:51:23;;;;;;;4.00;0.85;;;15.80;99.90;;;;;;5140355;27;20042;-67
2022/10/16 09:53:54;;;;;;;4.55;1.00;;;15.80;99.90;;;;;;5145995;27;20043;-66
2022/10/16 09:56:35;;;;;;;5.15;1.23;;;15.80;99.90;;;;;;5131898;27;20043;-67
2022/10/16 09:59:11;;;;;;;6.40;1.27;;;15.70;99.90;;;;;;5124075;27;20043;-67
2022/10/16 10:01:42;;;;;;;5.30;1.10;;;15.80;99.90;;;;;;5147122;27;20034;-82
2022/10/16 10:04:09;;;;;;;4.88;1.48;;;15.90;99.90;;;;;;5148165;27;20123;-67
2022/10/16 10:06:56;;;;;;;7.13;1.55;;;16.00;99.90;;;;;;5146394;27;20045;-67
2022/10/16 10:09:44;;;;;;;10.38;1.55;;;16.10;99.90;;;;;;5143490;27;20037;-68
2022/10/16 10:12:25;;;;;;;5.72;1.65;;;16.00;99.90;;;;;;5146992;27;20074;-68
2022/10/16 10:15:03;;;;;;;11.02;1.85;;;16.20;99.90;;;;;;5143886;27;20058;-68
2022/10/16 10:17:29;;;;;;;6.43;1.33;;;16.20;99.90;;;;;;5128471;27;20087;-68
2022/10/16 10:20:19;;;;;;;10.38;1.88;;;16.20;99.90;;;;;;5142680;27;20388;-68
2022/10/16 10:22:48;;;;;;;;;;;16.10;99.90;;;;;;5123536;27;20351;-68
2022/10/16 10:25:13;;;;;;;11.43;1.63;;;16.10;99.90;;;;;;5131741;27;20311;-68
2022/10/16 10:28:17;;;;;;;9.05;1.73;;;16.10;99.90;;;;;;5128901;27;20095;-68
2022/10/16 10:30:54;;;;;;;16.27;2.22;;;16.20;99.90;;;;;;5142742;27;20187;-68
2022/10/16 10:33:42;;;;;;;13.50;2.17;;;16.30;99.90;;;;;;5123950;27;20066;-68
2022/10/16 10:36:23;;;;;;;11.48;2.20;;;16.40;99.90;;;;;;5115597;27;20519;-67
2022/10/16 10:38:59;;;;;;;10.75;1.38;;;16.50;99.90;;;;;;5145629;27;20118;-68
2022/10/16 10:42:05;;;;;;;9.50;1.55;;;16.60;99.90;;;;;;5144476;27;20122;-68
2022/10/16 10:44:53;;;;;;;8.38;2.22;;;16.70;99.90;;;;;;5128026;27;20092;-67
2022/10/16 10:47:30;;;;;;;17.50;2.38;;;16.70;99.90;;;;;;5147355;27;20081;-68
2022/10/16 10:50:34;;;;;;;9.82;1.90;;;16.80;99.90;;;;;;5145874;27;20413;-68
2022/10/16 10:53:23;;;;;;;15.25;2.03;;;16.90;99.90;;;;;;5147550;27;20544;-67
2022/10/16 10:55:59;;;;;;;11.90;2.15;;;16.80;99.90;;;;;;5147301;27;20036;-67
2022/10/16 10:58:42;;;;;;;8.20;2.25;;;17.00;99.90;;;;;;5145993;27;20066;-67
2022/10/16 11:01:15;;;;;;;19.05;2.70;;;17.00;99.90;;;;;;5128860;27;20051;-67
2022/10/16 11:04:01;;;;;;;12.02;2.28;;;17.10;99.90;;;;;;5123767;27;20050;-67
2022/10/16 11:06:39;;;;;;;9.88;2.28;;;17.30;99.90;;;;;;5126394;27;20039;-68
2022/10/16 11:09:23;;;;;;;17.42;2.25;;;17.40;99.90;;;;;;5142646;27;20055;-67
2022/10/16 11:11:57;;;;;;;9.80;2.20;;;17.40;99.90;;;;;;5103840;28;20043;-67
2022/10/16 11:14:34;;;;;;;11.20;1.85;;;17.50;99.90;;;;;;5124745;27;20039;-67
2022/10/16 11:17:25;;;;;;;10.20;2.22;;;17.40;99.90;;;;;;5139919;27;20486;-67
2022/10/16 11:20:10;;;;;;;11.68;2.15;;;17.40;99.90;;;;;;5137248;27;20082;-69
2022/10/16 11:22:40;;;;;;;15.00;2.45;;;17.40;99.90;;;;;;5132418;27;20039;-80
2022/10/16 11:25:32;;;;;;;10.23;2.55;;;17.40;99.90;;;;;;5123822;27;20043;-67
2022/10/16 11:28:23;;;;;;;10.60;1.77;;;17.30;99.90;;;;;;5111072;27;20050;-67
2022/10/16 11:31:17;;;;;;;18.40;3.85;;;17.00;99.90;;;;;;5134627;27;20518;-68
2022/10/16 11:34:03;;;;;;;6.45;1.77;;;16.80;99.90;;;;;;5133653;27;20057;-67
2022/10/16 11:36:47;;;;;;;14.10;2.55;;;16.80;99.90;;;;;;5106042;27;20044;-67
2022/10/16 11:39:28;;;;;;;9.43;1.80;;;16.90;99.90;;;;;;5129490;27;20043;-67
2022/10/16 11:42:07;;;;;;;17.70;2.63;;;17.00;99.90;;;;;;5138981;27;20042;-67
2022/10/16 11:44:48;;;;;;;11.63;1.85;;;17.10;99.90;;;;;;5132318;27;20100;-67
2022/10/16 11:47:37;;;;;;;12.95;1.95;;;17.20;99.90;;;;;;5133739;27;20478;-69
2022/10/16 11:50:15;;;;;;;14.82;2.17;;;17.20;99.90;;;;;;5127589;27;20403;-67
2022/10/16 11:53:18;;;;;;;10.65;1.85;;;17.20;99.90;;;;;;5139215;27;20043;-67
2022/10/16 11:55:46;;;;;;;4.57;1.60;;;17.30;99.90;;;;;;5122580;27;20141;-67
2022/10/16 11:58:24;;;;;;;8.43;2.25;;;17.40;99.90;;;;;;5143710;27;20035;-66
2022/10/16 12:01:01;;;;;;;9.02;1.95;;;17.40;99.90;;;;;;5144406;27;20194;-67
2022/10/16 12:03:38;;;;;;;7.97;1.90;;;17.40;99.90;;;;;;5132331;27;20043;-67
2022/10/16 12:06:25;;;;;;;10.55;1.90;;;17.40;99.90;;;;;;5133027;27;20035;-67
2022/10/16 12:08:53;;;;;;;9.95;2.55;;;17.40;99.90;;;;;;5147367;27;20049;-69
2022/10/16 12:11:28;;;;;;;15.13;3.25;;;17.40;99.90;;;;;;5132007;27;20047;-66
2022/10/16 12:14:11;;;;;;;12.80;2.45;;;17.20;99.90;;;;;;5149526;27;20121;-66
2022/10/16 12:16:50;;;;;;;6.43;1.42;;;17.00;99.90;;;;;;5139727;27;20464;-66
2022/10/16 12:19:17;;;;;;;10.25;1.80;;;16.70;99.90;;;;;;5150920;27;20054;-66
2022/10/16 12:21:44;;;;;;;11.68;2.05;;;16.80;99.90;;;;;;5149083;27;20114;-66
2022/10/16 12:24:32;;;;;;;18.58;2.40;;;16.90;99.90;;;;;;5150099;27;20039;-78
2022/10/16 12:26:58;;;;;;;10.73;2.38;;;17.00;99.90;;;;;;5114525;27;20061;-66
2022/10/16 12:29:35;;;;;;;14.25;2.85;;;17.10;99.90;;;;;;5149892;27;20042;-66
2022/10/16 12:32:03;;;;;;;10.30;2.03;;;17.10;99.90;;;;;;5130880;27;20130;-66
2022/10/16 12:34:39;;;;;;;11.70;2.08;;;17.10;99.90;;;;;;5117053;27;20043;-87
2022/10/16 12:37:26;;;;;;;9.90;1.88;;;17.10;99.90;;;;;;5129168;27;20461;-67
2022/10/16 12:39:54;;;;;;;10.88;1.60;;;17.20;99.90;;;;;;5149704;27;20400;-66
2022/10/16 12:42:33;;;;;;;10.93;2.40;;;17.10;99.90;;;;;;5149518;27;20114;-66
2022/10/16 12:44:59;;;;;;;9.73;1.70;;;17.20;99.90;;;;;;5150465;27;20100;-66
2022/10/16 12:47:31;;;;;;;10.55;1.67;;;17.40;99.90;;;;;;5130510;27;20073;-66
2022/10/16 12:49:57;;;;;;;12.50;1.77;;;17.50;99.90;;;;;;5146536;27;20046;-66
2022/10/16 12:52:38;;;;;;;17.17;2.95;;;17.60;99.90;;;;;;5121861;27;20070;-66
2022/10/16 12:55:12;;;;;;;11.20;2.55;;;17.70;99.90;;;;;;5148941;27;20434;-66
2022/10/16 12:57:56;;;;;;;15.25;2.25;;;17.70;99.90;;;;;;5149374;27;20656;-66
2022/10/16 13:00:32;;;;;;;13.88;2.45;;;17.80;99.90;;;;;;5149267;27;20761;-67
2022/10/16 13:03:21;;;;;;;9.63;2.03;;;17.70;96.70;;;;;;5146744;27;20043;-66
2022/10/16 13:06:10;;;;;;;17.15;2.85;;;17.60;99.90;;;;;;5147504;27;20047;-66
2022/10/16 13:09:05;;;;;;;7.88;1.90;;;17.30;99.90;;;;;;5143234;27;20088;-66
2022/10/16 13:11:53;;;;;;;15.30;2.53;;;17.10;99.90;;;;;;5134911;27;20992;-66